26th May 2019 | Balmoral, NSW, Australia

Balmoral Burn (2019)

Individual Burn: Female

Pos Name Gun Time Category (Pos) Gender (Pos)
13 Bethany Halmy (#51) 00:01:36 Elite (1) Female  (1)
14 Jess Stafford (#53) 00:01:37 Elite (2) Female  (2)
24 Lora Storey (#52) 00:01:43 Elite (3) Female  (3)
29 Elise Abood (#57) 00:01:46 Elite (4) Female  (4)
38 Nicola Hogg (#59) 00:01:48 Elite (5) Female  (5)
44 Jessica Bird (#1240) 00:01:50 Open (1) Female  (6)
46 Izzy Thornton-Bott (#55) 00:01:50 Elite (6) Female  (7)
51 Susie Douglas (#58) 00:01:53 Elite (7) Female  (8)
59 Georgina Beck (#56) 00:01:56 Elite (8) Female  (9)
63 Abbey Rockliff (#54) 00:01:57 Elite (9) Female  (10)
67 Rebecca Wright (#1803) 00:01:58 Open (2) Female  (11)
69 Sophie Schultz (#1693) 00:01:59 Year 3-6 (1) Female  (12)
75 Paige Merriman (#1573) 00:02:01 Open (3) Female  (13)
85 Charlie Arnott (#1813) 00:02:03 Open (4) Female  (14)
90 Nadine Vecchio (#1757) 00:02:05 40-49 (1) Female  (15)
96 Rebecca Solomon (#1713) 00:02:06 Year 3-6 (2) Female  (16)
98 Joanna Cubis (#1902) 00:02:07 P&O (1) Female  (17)
104 Rebecca Gibbs (#1371) 00:02:08 30-39 (1) Female  (18)
110 Giselle Ashbolt (#1222) 00:02:10 Year 3-6 (3) Female  (19)
112 Eden Sigal (#1705) 00:02:10 Open (5) Female  (20)
119 Holly Ratajec (#2086) 00:02:12 Open (6) Female  (21)
128 Zoe Woods (#1801) 00:02:15 Year 3-6 (4) Female  (22)
134 Ingrid Kingsmill (#1838) 00:02:17 Open (7) Female  (23)
137 Lizzy Miller (#1578) 00:02:17 P&O (2) Female  (24)
142 Allie Joyce (#1479) 00:02:18 Open (8) Female  (25)
146 Amber Kusano (#1508) 00:02:19 Year 3-6 (5) Female  (26)
151 Piper Simpson (#1706) 00:02:20 Year 3-6 (6) Female  (27)
156 Amanda Wilson (#1789) 00:02:21 30-39 (2) Female  (28)
159 Abby Lander (#1515) 00:02:22 Open (9) Female  (29)
161 Jessica Raimond (#2061) 00:02:22 5059 (1) Female  (30)
165 Louisa Grundy (#1401) 00:02:22 Open (10) Female  (31)
167 Kate Steggles (#1721) 00:02:23 Open (11) Female  (32)
170 Imogen Howard (#1447) 00:02:23 Year 3-6 (7) Female  (33)
172 Marianne Power (#1853) 00:02:23 40-49 (2) Female  (34)
177 Monique Pellaers (#1637) 00:02:24 HR (1) Female  (35)
178 Abby Latimer (#1522) 00:02:24 Open (12) Female  (36)
188 Zoe Jamespon (#1463) 00:02:27 P&O (3) Female  (37)
195 Laura Jones (#2073) 00:02:27 Year 3-6 (8) Female  (38)
198 Courtney Cain (#1266) 00:02:28 Open (13) Female  (39)
200 Megan Guthrie (#1903) 00:02:28 40-49 (3) Female  (40)
209 Kate Molloy (#1580) 00:02:30 Open (14) Female  (41)
212 Sally Little (#1530) 00:02:30 Open (15) Female  (42)
218 Kate Sammon (#2046) 00:02:32 Open (16) Female  (43)
224 Chelsea Harkins (#1826) 00:02:33 Open (17) Female  (44)
228 Michaela Dalrymple (#1305) 00:02:33 Open (18) Female  (45)
230 Maisie Wetzel (#1885) 00:02:34 Year 3-6 (9) Female  (46)
232 Kate Dodero (#1319) 00:02:34 30-39 (3) Female  (47)
236 Nicole Carswell (#1275) 00:02:34 Open (19) Female  (48)
237 Lyndal Carmody (#1273) 00:02:34 30-39 (4) Female  (49)
238 Emma Watson (#1778) 00:02:35 Open (20) Female  (50)